Time;durP1;ratioP1;P1;durP2;ratioP2;P2;SDS_P1;SDS_P2;PMS_P1;PMS_P2;Temp;Humidity;BMP_temperature;BMP_pressure;BME280_temperature;BME280_humidity;BME280_pressure;Samples;Min_cycle;Max_cycle;Signal;HPM_P1;HPM_P2
2023/09/06 00:02:06;;;;;;;11.13;5.68;;;;;;;;;;5045255;28;20037;-74
2023/09/06 00:04:51;;;;;;;7.72;5.40;;;;;;;;;;5052242;28;20041;-75
2023/09/06 00:07:37;;;;;;;12.80;5.63;;;;;;;;;;5060211;28;20482;-75
2023/09/06 00:10:22;;;;;;;15.40;6.20;;;;;;;;;;5059762;28;20045;-75
2023/09/06 00:13:09;;;;;;;12.82;6.40;;;;;;;;;;5053032;28;20061;-75
2023/09/06 00:15:54;;;;;;;9.90;6.53;;;;;;;;;;5060378;28;20391;-75
2023/09/06 00:18:40;;;;;;;15.88;6.20;;;;;;;;;;5052982;28;20049;-75
2023/09/06 00:21:27;;;;;;;20.98;6.45;;;;;;;;;;5053036;28;20053;-75
2023/09/06 00:24:18;;;;;;;11.65;5.75;;;;;;;;;;5059945;28;20052;-75
2023/09/06 00:27:06;;;;;;;10.90;6.15;;;;;;;;;;5053352;28;20044;-75
2023/09/06 00:29:52;;;;;;;13.77;6.80;;;;;;;;;;5053581;28;20045;-75
2023/09/06 00:32:37;;;;;;;20.35;6.75;;;;;;;;;;5052998;28;20037;-77
2023/09/06 00:35:26;;;;;;;14.02;6.20;;;;;;;;;;5053177;28;20486;-77
2023/09/06 00:38:11;;;;;;;16.15;6.25;;;;;;;;;;5053077;28;20041;-77
2023/09/06 00:40:57;;;;;;;11.80;6.38;;;;;;;;;;5045140;28;20048;-76
2023/09/06 00:43:42;;;;;;;15.70;6.70;;;;;;;;;;5044710;28;20045;-76
2023/09/06 00:46:28;;;;;;;9.38;6.03;;;;;;;;;;5044689;28;20487;-75
2023/09/06 00:49:14;;;;;;;16.20;6.35;;;;;;;;;;5053378;28;20048;-75
2023/09/06 00:51:59;;;;;;;13.32;6.28;;;;;;;;;;5052488;28;20052;-75
2023/09/06 00:54:45;;;;;;;18.27;6.60;;;;;;;;;;5053099;28;20041;-76
2023/09/06 00:57:32;;;;;;;20.30;6.65;;;;;;;;;;5053292;28;20049;-76
2023/09/06 01:00:20;;;;;;;16.77;6.43;;;;;;;;;;5044427;28;20044;-75
2023/09/06 01:03:05;;;;;;;15.68;6.43;;;;;;;;;;5044782;28;20045;-76
2023/09/06 01:06:03;;;;;;;16.25;6.80;;;;;;;;;;5053112;28;20390;-75
2023/09/06 01:08:55;;;;;;;15.27;7.10;;;;;;;;;;5043933;28;20041;-75
2023/09/06 01:11:41;;;;;;;17.10;6.57;;;;;;;;;;5052351;28;20037;-75
2023/09/06 01:14:27;;;;;;;16.85;6.50;;;;;;;;;;5052644;28;20044;-74
2023/09/06 01:17:16;;;;;;;16.15;6.72;;;;;;;;;;5056407;28;20045;-75
2023/09/06 01:20:16;;;;;;;15.95;7.13;;;;;;;;;;5048200;28;20037;-75
2023/09/06 01:23:23;;;;;;;13.15;6.45;;;;;;;;;;5056563;28;20040;-75
2023/09/06 01:26:08;;;;;;;14.13;6.50;;;;;;;;;;5056160;28;20399;-75
2023/09/06 01:28:54;;;;;;;18.73;6.55;;;;;;;;;;5047690;28;20052;-75
2023/09/06 01:31:39;;;;;;;11.82;6.45;;;;;;;;;;5047643;28;20041;-75
2023/09/06 01:34:25;;;;;;;14.52;6.90;;;;;;;;;;5048052;28;20044;-75
2023/09/06 01:37:10;;;;;;;10.32;6.43;;;;;;;;;;5047020;28;20053;-75
2023/09/06 01:39:56;;;;;;;11.70;6.65;;;;;;;;;;5047565;28;20390;-74
2023/09/06 01:42:42;;;;;;;12.38;6.82;;;;;;;;;;5055756;28;20053;-75
2023/09/06 01:45:29;;;;;;;13.20;6.85;;;;;;;;;;5047459;28;20041;-75
2023/09/06 01:48:14;;;;;;;15.48;6.85;;;;;;;;;;5062055;28;20045;-75
2023/09/06 01:50:59;;;;;;;11.73;6.20;;;;;;;;;;5055750;28;20049;-75
2023/09/06 01:53:45;;;;;;;16.90;6.32;;;;;;;;;;5055805;28;20041;-75
2023/09/06 01:56:30;;;;;;;15.35;6.82;;;;;;;;;;5055384;28;20398;-75
2023/09/06 01:59:17;;;;;;;12.60;6.45;;;;;;;;;;5047250;28;20490;-75
2023/09/06 02:02:04;;;;;;;8.75;6.93;;;;;;;;;;5046540;28;20044;-76
2023/09/06 02:04:49;;;;;;;13.55;6.82;;;;;;;;;;5053998;28;20048;-75
2023/09/06 02:07:35;;;;;;;10.77;6.47;;;;;;;;;;5053229;28;20045;-76
2023/09/06 02:10:20;;;;;;;11.98;6.50;;;;;;;;;;5045116;28;20049;-75
2023/09/06 02:13:06;;;;;;;11.73;6.63;;;;;;;;;;5039999;28;20049;-76
2023/09/06 02:15:51;;;;;;;10.93;6.75;;;;;;;;;;5052992;28;20057;-75
2023/09/06 02:18:37;;;;;;;12.35;6.32;;;;;;;;;;5037568;28;20049;-75
2023/09/06 02:21:23;;;;;;;15.38;6.53;;;;;;;;;;5053303;28;20044;-75
2023/09/06 02:24:08;;;;;;;9.90;6.43;;;;;;;;;;5053238;28;20041;-75
2023/09/06 02:26:54;;;;;;;15.10;6.47;;;;;;;;;;5052293;28;20053;-75
2023/09/06 02:29:40;;;;;;;13.15;5.82;;;;;;;;;;5054013;28;20410;-75
2023/09/06 02:32:26;;;;;;;12.00;6.32;;;;;;;;;;5061054;28;20037;-75
2023/09/06 02:35:12;;;;;;;12.25;5.80;;;;;;;;;;5061747;28;20482;-75
2023/09/06 02:37:57;;;;;;;8.45;5.90;;;;;;;;;;5054234;28;20049;-75
2023/09/06 02:40:43;;;;;;;10.60;5.65;;;;;;;;;;5054973;28;20049;-75
2023/09/06 02:43:28;;;;;;;7.45;5.95;;;;;;;;;;5054931;28;20045;-75
2023/09/06 02:46:15;;;;;;;13.27;5.93;;;;;;;;;;5045830;28;20045;-74
2023/09/06 02:49:11;;;;;;;9.20;5.38;;;;;;;;;;5055204;28;20085;-75
2023/09/06 02:51:56;;;;;;;9.18;5.60;;;;;;;;;;5039454;28;20045;-75
2023/09/06 02:54:42;;;;;;;5.55;5.00;;;;;;;;;;5054176;28;20037;-75
2023/09/06 02:57:27;;;;;;;12.30;5.60;;;;;;;;;;5054884;28;20045;-74
2023/09/06 03:00:35;;;;;;;10.23;5.63;;;;;;;;;;5054234;28;20045;-75
2023/09/06 03:03:21;;;;;;;7.65;5.00;;;;;;;;;;5060866;28;20061;-75
2023/09/06 03:06:07;;;;;;;9.35;5.15;;;;;;;;;;5045926;28;20037;-74
2023/09/06 03:08:53;;;;;;;8.55;5.40;;;;;;;;;;5045845;28;20049;-74
2023/09/06 03:11:39;;;;;;;9.60;5.43;;;;;;;;;;5060773;28;20041;-74
2023/09/06 03:14:30;;;;;;;7.57;5.35;;;;;;;;;;5052811;28;20053;-75
2023/09/06 03:17:18;;;;;;;14.57;5.60;;;;;;;;;;5046162;28;20037;-74
2023/09/06 03:20:19;;;;;;;15.15;5.85;;;;;;;;;;5045535;28;20041;-74
2023/09/06 03:23:16;;;;;;;8.27;5.68;;;;;;;;;;5045850;28;20044;-74
2023/09/06 03:26:05;;;;;;;11.55;6.20;;;;;;;;;;5046066;28;20037;-74
2023/09/06 03:28:56;;;;;;;11.80;6.03;;;;;;;;;;5053990;28;20060;-77
2023/09/06 03:31:42;;;;;;;8.82;6.30;;;;;;;;;;5053627;28;20040;-75
2023/09/06 03:34:29;;;;;;;8.93;6.18;;;;;;;;;;5045503;28;20044;-75
2023/09/06 03:37:18;;;;;;;11.20;6.05;;;;;;;;;;5045586;28;20044;-75
2023/09/06 03:40:25;;;;;;;11.55;5.93;;;;;;;;;;5045201;28;20041;-75
2023/09/06 03:43:19;;;;;;;12.15;6.22;;;;;;;;;;5053594;28;20041;-75
2023/09/06 03:46:07;;;;;;;14.20;5.90;;;;;;;;;;5053985;28;20065;-75
2023/09/06 03:48:53;;;;;;;13.07;6.03;;;;;;;;;;5044812;28;20041;-75
2023/09/06 03:51:39;;;;;;;9.15;6.20;;;;;;;;;;5045149;28;20045;-75
2023/09/06 03:54:24;;;;;;;16.15;6.60;;;;;;;;;;5045106;28;20049;-75
2023/09/06 03:57:12;;;;;;;8.60;5.35;;;;;;;;;;5053551;28;20041;-75
2023/09/06 04:00:00;;;;;;;9.68;5.65;;;;;;;;;;5045409;28;20049;-75
2023/09/06 04:02:47;;;;;;;10.45;5.82;;;;;;;;;;5045094;28;20044;-75
2023/09/06 04:05:34;;;;;;;10.05;6.22;;;;;;;;;;5045078;28;20033;-75
2023/09/06 04:08:21;;;;;;;12.60;5.88;;;;;;;;;;5043934;28;20045;-75
2023/09/06 04:11:11;;;;;;;10.05;5.82;;;;;;;;;;5045378;28;20037;-75
2023/09/06 04:13:57;;;;;;;7.35;6.13;;;;;;;;;;5039589;28;20044;-76
2023/09/06 04:16:45;;;;;;;9.80;5.63;;;;;;;;;;5044738;28;20045;-75
2023/09/06 04:19:33;;;;;;;11.07;6.13;;;;;;;;;;5045429;28;20041;-75
2023/09/06 04:22:19;;;;;;;14.27;6.63;;;;;;;;;;5053594;28;20041;-75
2023/09/06 04:25:06;;;;;;;10.70;6.50;;;;;;;;;;5044817;28;20041;-75
2023/09/06 04:27:55;;;;;;;12.90;6.55;;;;;;;;;;5045003;28;20045;-75
2023/09/06 04:30:45;;;;;;;12.43;7.18;;;;;;;;;;5044948;28;20041;-75
2023/09/06 04:33:31;;;;;;;9.40;6.40;;;;;;;;;;5044729;28;20057;-75
2023/09/06 04:36:31;;;;;;;10.38;6.18;;;;;;;;;;5045057;28;20029;-75
2023/09/06 04:39:28;;;;;;;14.48;6.43;;;;;;;;;;5045059;28;20056;-75
2023/09/06 04:42:15;;;;;;;14.77;5.95;;;;;;;;;;5059304;28;20052;-75
2023/09/06 04:45:00;;;;;;;11.20;5.70;;;;;;;;;;5044919;28;20483;-75
2023/09/06 04:47:45;;;;;;;17.02;5.90;;;;;;;;;;5043955;28;20413;-74
2023/09/06 04:50:31;;;;;;;10.38;5.60;;;;;;;;;;5055537;28;20045;-74
2023/09/06 04:53:19;;;;;;;13.57;5.80;;;;;;;;;;5047851;28;20037;-74
2023/09/06 04:56:07;;;;;;;8.57;5.15;;;;;;;;;;5046221;28;20049;-74
2023/09/06 04:59:00;;;;;;;12.73;6.00;;;;;;;;;;5046334;28;20403;-74
2023/09/06 05:01:45;;;;;;;11.82;5.82;;;;;;;;;;5046203;28;20434;-74
2023/09/06 05:04:30;;;;;;;10.98;6.30;;;;;;;;;;5054049;28;20045;-75
2023/09/06 05:07:16;;;;;;;9.43;6.03;;;;;;;;;;5045939;28;20041;-74
2023/09/06 05:10:03;;;;;;;11.80;5.97;;;;;;;;;;5046316;28;20399;-75
2023/09/06 05:12:52;;;;;;;8.60;4.97;;;;;;;;;;5042999;28;20048;-75
2023/09/06 05:15:38;;;;;;;7.78;5.32;;;;;;;;;;5046303;28;20052;-74
2023/09/06 05:18:25;;;;;;;12.98;5.85;;;;;;;;;;5046020;28;20040;-74
2023/09/06 05:21:11;;;;;;;9.35;5.78;;;;;;;;;;5045858;28;20394;-75
2023/09/06 05:23:57;;;;;;;9.50;6.20;;;;;;;;;;5045672;28;20652;-74
2023/09/06 05:26:45;;;;;;;12.63;5.50;;;;;;;;;;5045864;28;20041;-74
2023/09/06 05:29:32;;;;;;;10.00;6.43;;;;;;;;;;5054228;28;20053;-75
2023/09/06 05:32:19;;;;;;;12.20;7.03;;;;;;;;;;5045709;28;20422;-74
2023/09/06 05:35:06;;;;;;;16.55;6.47;;;;;;;;;;5061057;28;20390;-74
2023/09/06 05:37:52;;;;;;;15.30;5.82;;;;;;;;;;5045663;28;20398;-74
2023/09/06 05:40:40;;;;;;;10.95;6.43;;;;;;;;;;5045647;28;20386;-74
2023/09/06 05:43:27;;;;;;;13.13;6.30;;;;;;;;;;5045006;28;20033;-74
2023/09/06 05:46:13;;;;;;;10.50;6.15;;;;;;;;;;5045474;28;20482;-74
2023/09/06 05:48:59;;;;;;;9.65;5.90;;;;;;;;;;5055454;28;20045;-75
2023/09/06 05:51:46;;;;;;;13.30;6.70;;;;;;;;;;5047169;28;20045;-75
2023/09/06 05:54:32;;;;;;;9.50;5.68;;;;;;;;;;5047071;28;20044;-75
2023/09/06 05:57:18;;;;;;;12.15;5.70;;;;;;;;;;5047296;28;20045;-75
2023/09/06 06:00:17;;;;;;;7.82;5.57;;;;;;;;;;5047531;28;20406;-76
2023/09/06 06:03:10;;;;;;;7.28;5.22;;;;;;;;;;5044601;28;20056;-75
2023/09/06 06:05:56;;;;;;;12.85;5.32;;;;;;;;;;5053084;28;20052;-75
2023/09/06 06:08:42;;;;;;;11.73;5.45;;;;;;;;;;5059788;28;20041;-75
2023/09/06 06:11:27;;;;;;;10.15;5.13;;;;;;;;;;5060327;28;20037;-75
2023/09/06 06:14:13;;;;;;;7.63;5.03;;;;;;;;;;5053738;28;20052;-75
2023/09/06 06:16:59;;;;;;;7.07;5.03;;;;;;;;;;5053605;28;20033;-75
2023/09/06 06:19:45;;;;;;;7.45;4.80;;;;;;;;;;5053129;28;20045;-76
2023/09/06 06:22:33;;;;;;;9.55;5.05;;;;;;;;;;5044752;28;20052;-75
2023/09/06 06:25:20;;;;;;;10.30;5.03;;;;;;;;;;5038142;28;20049;-75
2023/09/06 06:28:06;;;;;;;9.65;4.72;;;;;;;;;;5053191;28;20053;-75
2023/09/06 06:30:51;;;;;;;10.85;4.95;;;;;;;;;;5059693;28;20049;-75
2023/09/06 06:33:38;;;;;;;10.13;4.80;;;;;;;;;;5052807;28;20048;-74
2023/09/06 06:36:23;;;;;;;7.50;4.28;;;;;;;;;;5059298;28;20040;-75
2023/09/06 06:39:10;;;;;;;8.43;5.00;;;;;;;;;;5052786;28;20041;-75
2023/09/06 06:41:56;;;;;;;8.20;4.35;;;;;;;;;;5052793;28;20048;-75
2023/09/06 06:44:49;;;;;;;9.25;4.20;;;;;;;;;;5044256;28;20056;-75
2023/09/06 06:47:35;;;;;;;9.45;3.90;;;;;;;;;;5037681;28;20052;-75
2023/09/06 06:50:20;;;;;;;6.13;4.40;;;;;;;;;;5052920;28;20045;-75
2023/09/06 06:53:06;;;;;;;5.97;4.22;;;;;;;;;;5058945;28;20486;-76
2023/09/06 06:55:51;;;;;;;8.45;5.00;;;;;;;;;;5059337;28;20437;-75
2023/09/06 06:58:37;;;;;;;10.35;5.03;;;;;;;;;;5052404;28;20053;-76
2023/09/06 07:01:24;;;;;;;6.47;4.65;;;;;;;;;;5052564;28;20045;-75
2023/09/06 07:04:09;;;;;;;6.75;4.57;;;;;;;;;;5059363;28;20052;-75
2023/09/06 07:06:55;;;;;;;8.65;4.82;;;;;;;;;;5058953;28;20045;-73
2023/09/06 07:09:41;;;;;;;12.50;5.72;;;;;;;;;;5053841;28;20402;-75
2023/09/06 07:12:26;;;;;;;10.57;5.65;;;;;;;;;;5053402;28;20398;-74
2023/09/06 07:15:12;;;;;;;11.43;6.60;;;;;;;;;;5054249;28;20490;-73
2023/09/06 07:18:04;;;;;;;11.70;5.38;;;;;;;;;;5054293;28;20045;-74
2023/09/06 07:20:50;;;;;;;10.07;6.28;;;;;;;;;;5060064;28;20045;-75
2023/09/06 07:23:36;;;;;;;12.88;5.43;;;;;;;;;;5054008;28;20048;-75
2023/09/06 07:26:21;;;;;;;11.68;5.70;;;;;;;;;;5053889;28;20037;-75
2023/09/06 07:29:09;;;;;;;11.38;5.97;;;;;;;;;;5053660;28;20041;-74
2023/09/06 07:31:55;;;;;;;12.40;5.80;;;;;;;;;;5054104;28;20076;-75
2023/09/06 07:34:40;;;;;;;12.02;5.50;;;;;;;;;;5053743;28;20060;-74
2023/09/06 07:37:25;;;;;;;9.43;5.07;;;;;;;;;;5053649;28;20045;-74
2023/09/06 07:40:11;;;;;;;8.07;4.60;;;;;;;;;;5060304;28;20045;-74
2023/09/06 07:42:57;;;;;;;8.05;4.03;;;;;;;;;;5052898;28;20037;-74
2023/09/06 07:45:42;;;;;;;5.72;3.33;;;;;;;;;;5053416;28;20045;-73
2023/09/06 07:48:30;;;;;;;9.75;4.20;;;;;;;;;;5053965;28;20053;-77
2023/09/06 07:51:15;;;;;;;5.65;3.70;;;;;;;;;;5054072;28;20053;-74
2023/09/06 07:54:01;;;;;;;6.50;3.30;;;;;;;;;;5053432;28;20045;-73
2023/09/06 07:56:47;;;;;;;8.77;3.78;;;;;;;;;;5053323;28;20474;-74
2023/09/06 07:59:32;;;;;;;6.18;3.28;;;;;;;;;;5052282;28;20566;-75
2023/09/06 08:02:17;;;;;;;7.85;3.72;;;;;;;;;;5057869;28;20048;-73
2023/09/06 08:05:04;;;;;;;5.13;3.15;;;;;;;;;;5051075;28;20057;-74
2023/09/06 08:07:50;;;;;;;6.90;3.55;;;;;;;;;;5050495;28;20041;-74
2023/09/06 08:10:36;;;;;;;6.47;3.28;;;;;;;;;;5043075;28;20455;-74
2023/09/06 08:13:22;;;;;;;5.65;3.78;;;;;;;;;;5054020;28;20049;-75
2023/09/06 08:16:07;;;;;;;6.72;3.72;;;;;;;;;;5056794;28;20056;-74
2023/09/06 08:18:53;;;;;;;6.93;3.70;;;;;;;;;;5051246;28;20041;-73
2023/09/06 08:21:40;;;;;;;6.18;3.53;;;;;;;;;;5051288;28;20048;-74
2023/09/06 08:24:25;;;;;;;7.97;3.42;;;;;;;;;;5036243;28;20072;-75
2023/09/06 08:27:11;;;;;;;9.02;4.50;;;;;;;;;;5055940;28;20041;-74
2023/09/06 08:29:56;;;;;;;11.98;4.10;;;;;;;;;;5056254;28;20037;-74
2023/09/06 08:32:44;;;;;;;6.38;3.40;;;;;;;;;;5055079;28;20394;-74
2023/09/06 08:35:30;;;;;;;6.88;3.30;;;;;;;;;;5054966;28;20049;-77
2023/09/06 08:38:15;;;;;;;6.65;3.08;;;;;;;;;;5055167;28;20045;-74
2023/09/06 08:41:01;;;;;;;4.47;3.22;;;;;;;;;;5055410;28;20045;-75
2023/09/06 08:43:47;;;;;;;5.68;3.30;;;;;;;;;;5055189;28;20048;-76
2023/09/06 08:46:38;;;;;;;7.35;3.00;;;;;;;;;;5055341;28;20052;-75
2023/09/06 08:49:25;;;;;;;6.43;2.80;;;;;;;;;;5055144;28;20569;-74
2023/09/06 08:52:10;;;;;;;4.88;3.00;;;;;;;;;;5054944;28;20045;-75
2023/09/06 08:54:55;;;;;;;8.43;3.17;;;;;;;;;;5054513;28;20061;-75
2023/09/06 08:57:42;;;;;;;6.90;3.33;;;;;;;;;;5055133;28;20532;-75
2023/09/06 09:00:27;;;;;;;5.55;2.80;;;;;;;;;;5054612;28;20037;-74
2023/09/06 09:03:12;;;;;;;4.93;2.70;;;;;;;;;;5061655;28;20041;-72
2023/09/06 09:06:00;;;;;;;10.80;3.42;;;;;;;;;;5054523;28;20048;-73
2023/09/06 09:08:44;;;;;;;5.78;2.67;;;;;;;;;;5061275;28;20478;-75
2023/09/06 09:11:29;;;;;;;7.95;3.40;;;;;;;;;;5061227;28;20478;-75
2023/09/06 09:14:23;;;;;;;5.22;2.70;;;;;;;;;;5054070;28;20045;-73
2023/09/06 09:17:08;;;;;;;3.60;2.83;;;;;;;;;;5039007;28;20044;-74
2023/09/06 09:19:57;;;;;;;6.13;3.10;;;;;;;;;;5054546;28;20395;-74
2023/09/06 09:22:44;;;;;;;7.35;3.30;;;;;;;;;;5054812;28;20517;-73
2023/09/06 09:25:29;;;;;;;4.50;2.78;;;;;;;;;;5060809;28;20041;-74
2023/09/06 09:28:16;;;;;;;5.10;3.08;;;;;;;;;;5045807;28;20041;-74
2023/09/06 09:31:05;;;;;;;4.65;2.80;;;;;;;;;;5054507;28;20483;-73
2023/09/06 09:33:50;;;;;;;7.75;2.85;;;;;;;;;;5054012;28;20045;-73
2023/09/06 09:36:37;;;;;;;4.90;2.70;;;;;;;;;;5053928;28;20049;-77
2023/09/06 09:39:26;;;;;;;5.07;2.90;;;;;;;;;;5053914;28;20041;-73
2023/09/06 09:42:12;;;;;;;8.00;2.70;;;;;;;;;;5053812;28;20045;-74
2023/09/06 09:45:02;;;;;;;5.38;3.00;;;;;;;;;;5054082;28;20041;-75
2023/09/06 09:47:47;;;;;;;9.80;2.90;;;;;;;;;;5053633;28;20037;-74
2023/09/06 09:50:34;;;;;;;6.18;2.88;;;;;;;;;;5053723;28;20041;-74
2023/09/06 09:53:23;;;;;;;5.35;3.17;;;;;;;;;;5055083;28;20045;-75
2023/09/06 09:56:09;;;;;;;7.40;3.17;;;;;;;;;;5054668;28;20041;-72
2023/09/06 09:58:55;;;;;;;7.18;3.30;;;;;;;;;;5055506;28;20052;-74
2023/09/06 10:01:42;;;;;;;4.75;2.83;;;;;;;;;;5055105;28;20390;-73
2023/09/06 10:04:29;;;;;;;4.93;3.00;;;;;;;;;;5054864;28;20470;-72
2023/09/06 10:07:17;;;;;;;7.18;3.22;;;;;;;;;;5045058;28;20041;-74
2023/09/06 10:10:05;;;;;;;8.68;3.10;;;;;;;;;;5053740;28;20041;-74
2023/09/06 10:12:52;;;;;;;6.55;3.13;;;;;;;;;;5053003;28;20045;-75
2023/09/06 10:15:37;;;;;;;4.05;3.08;;;;;;;;;;5053319;28;20053;-74
2023/09/06 10:18:23;;;;;;;5.40;3.28;;;;;;;;;;5053749;28;20053;-72
2023/09/06 10:21:09;;;;;;;4.50;3.47;;;;;;;;;;5053172;28;20398;-73
2023/09/06 10:23:55;;;;;;;5.82;3.17;;;;;;;;;;5053158;28;20421;-72
2023/09/06 10:26:43;;;;;;;7.57;3.55;;;;;;;;;;5053048;28;20474;-72
2023/09/06 10:29:30;;;;;;;5.63;3.55;;;;;;;;;;5053223;28;20037;-72
2023/09/06 10:32:15;;;;;;;5.90;3.50;;;;;;;;;;5053322;28;20493;-74
2023/09/06 10:35:24;;;;;;;6.60;3.35;;;;;;;;;;5053208;28;20044;-74
2023/09/06 10:38:18;;;;;;;5.93;3.30;;;;;;;;;;5053364;28;20509;-74
2023/09/06 10:41:07;;;;;;;8.93;3.83;;;;;;;;;;5038274;28;20037;-75
2023/09/06 10:43:57;;;;;;;5.68;3.30;;;;;;;;;;5052993;28;20414;-75
2023/09/06 10:46:42;;;;;;;4.05;3.40;;;;;;;;;;5052774;28;20041;-73
2023/09/06 10:49:28;;;;;;;7.22;3.90;;;;;;;;;;5052739;28;20044;-72
2023/09/06 10:52:15;;;;;;;7.72;3.63;;;;;;;;;;5052714;28;20036;-73
2023/09/06 10:55:01;;;;;;;5.95;3.83;;;;;;;;;;5052379;28;20041;-75
2023/09/06 10:58:06;;;;;;;8.35;3.67;;;;;;;;;;5052977;28;20041;-73
2023/09/06 11:01:09;;;;;;;;;;;;;;;;;;5052946;28;20041;-73
2023/09/06 11:03:58;;;;;;;13.15;3.53;;;;;;;;;;5052589;28;20243;-73
2023/09/06 11:06:52;;;;;;;5.55;3.20;;;;;;;;;;5052450;28;20402;-73
2023/09/06 11:09:43;;;;;;;6.88;3.72;;;;;;;;;;5037494;28;20037;-73
2023/09/06 11:12:28;;;;;;;6.38;3.53;;;;;;;;;;5052294;28;20049;-73
2023/09/06 11:15:14;;;;;;;5.22;3.58;;;;;;;;;;5052709;28;20060;-73
2023/09/06 11:18:00;;;;;;;9.23;3.70;;;;;;;;;;5052432;28;20040;-74
2023/09/06 11:20:48;;;;;;;9.38;3.78;;;;;;;;;;5052197;28;20044;-74
2023/09/06 11:23:48;;;;;;;5.88;3.47;;;;;;;;;;5052212;28;20044;-73
2023/09/06 11:26:37;;;;;;;4.93;3.40;;;;;;;;;;5051997;28;20045;-73
2023/09/06 11:29:26;;;;;;;8.48;3.83;;;;;;;;;;5052121;28;20715;-73
2023/09/06 11:32:12;;;;;;;7.97;3.38;;;;;;;;;;5051967;28;20045;-73
2023/09/06 11:34:57;;;;;;;10.73;4.32;;;;;;;;;;5036089;28;20053;-74
2023/09/06 11:37:50;;;;;;;6.85;3.40;;;;;;;;;;5051589;28;20037;-76
2023/09/06 11:40:36;;;;;;;9.20;4.38;;;;;;;;;;5051500;28;20057;-74
2023/09/06 11:43:26;;;;;;;7.50;3.97;;;;;;;;;;5051776;28;20052;-74
2023/09/06 11:46:14;;;;;;;10.52;4.20;;;;;;;;;;5051867;28;20395;-73
2023/09/06 11:48:59;;;;;;;8.07;3.90;;;;;;;;;;5051522;28;20041;-73
2023/09/06 11:51:47;;;;;;;6.85;3.80;;;;;;;;;;5053334;28;20037;-73
2023/09/06 11:54:38;;;;;;;6.10;3.70;;;;;;;;;;5052046;28;20045;-73
2023/09/06 11:57:26;;;;;;;5.70;3.95;;;;;;;;;;5053621;28;20053;-73
2023/09/06 12:00:25;;;;;;;5.97;3.50;;;;;;;;;;5053044;28;20479;-73
2023/09/06 12:03:16;;;;;;;6.07;4.13;;;;;;;;;;5053065;28;20045;-73
2023/09/06 12:06:03;;;;;;;6.78;4.05;;;;;;;;;;5053170;28;20052;-73
2023/09/06 12:08:51;;;;;;;6.72;3.65;;;;;;;;;;5053590;28;20049;-73
2023/09/06 12:11:37;;;;;;;5.80;3.40;;;;;;;;;;5053084;28;20041;-74
2023/09/06 12:14:23;;;;;;;8.35;3.85;;;;;;;;;;5053330;28;20049;-73
2023/09/06 12:17:08;;;;;;;6.22;3.92;;;;;;;;;;5053684;28;20390;-73
2023/09/06 12:20:01;;;;;;;5.57;3.83;;;;;;;;;;5053289;28;20049;-73
2023/09/06 12:22:47;;;;;;;6.50;3.58;;;;;;;;;;5053474;28;20041;-73
2023/09/06 12:25:32;;;;;;;9.45;3.50;;;;;;;;;;5053072;28;20041;-74
2023/09/06 12:28:18;;;;;;;6.68;4.00;;;;;;;;;;5052567;28;20045;-73
2023/09/06 12:31:04;;;;;;;10.35;3.80;;;;;;;;;;5052951;28;20041;-73
2023/09/06 12:33:51;;;;;;;7.47;3.97;;;;;;;;;;5052936;28;20402;-73
2023/09/06 12:36:36;;;;;;;6.32;3.80;;;;;;;;;;5053290;28;20045;-74
2023/09/06 12:39:22;;;;;;;5.13;3.35;;;;;;;;;;5052884;28;20052;-74
2023/09/06 12:42:07;;;;;;;5.57;3.83;;;;;;;;;;5044176;28;20401;-74
2023/09/06 12:44:53;;;;;;;7.78;3.75;;;;;;;;;;5052980;28;20037;-73
2023/09/06 12:47:39;;;;;;;5.28;3.67;;;;;;;;;;5052374;28;20490;-73
2023/09/06 12:50:25;;;;;;;6.95;3.80;;;;;;;;;;5052770;28;20049;-74
2023/09/06 12:53:11;;;;;;;5.95;3.42;;;;;;;;;;5052715;28;20037;-73
2023/09/06 12:55:56;;;;;;;9.35;3.92;;;;;;;;;;5052914;28;20410;-73
2023/09/06 12:58:42;;;;;;;8.40;3.75;;;;;;;;;;5052570;28;20045;-73
2023/09/06 13:01:27;;;;;;;4.82;3.72;;;;;;;;;;5059463;28;20502;-73
2023/09/06 13:04:13;;;;;;;8.38;3.60;;;;;;;;;;5052613;28;20398;-74
2023/09/06 13:06:58;;;;;;;4.32;3.85;;;;;;;;;;5052539;28;20494;-74
2023/09/06 13:09:43;;;;;;;4.63;3.63;;;;;;;;;;5052787;28;20042;-74
2023/09/06 13:12:29;;;;;;;9.23;4.13;;;;;;;;;;5055791;28;20037;-73
2023/09/06 13:15:14;;;;;;;9.95;3.70;;;;;;;;;;5056316;28;20471;-73
2023/09/06 13:18:00;;;;;;;7.68;3.55;;;;;;;;;;5054963;28;20044;-74
2023/09/06 13:20:46;;;;;;;5.82;3.45;;;;;;;;;;5054790;28;20045;-73
2023/09/06 13:23:31;;;;;;;6.82;3.80;;;;;;;;;;5056235;28;20044;-73
2023/09/06 13:26:17;;;;;;;6.28;3.60;;;;;;;;;;5055874;28;20057;-73
2023/09/06 13:29:03;;;;;;;4.65;3.65;;;;;;;;;;5041427;28;20041;-73
2023/09/06 13:31:48;;;;;;;5.82;3.58;;;;;;;;;;5055683;28;20609;-74
2023/09/06 13:34:36;;;;;;;5.50;3.70;;;;;;;;;;5056226;28;20037;-73
2023/09/06 13:37:22;;;;;;;10.23;3.80;;;;;;;;;;5056268;28;20041;-74
2023/09/06 13:40:08;;;;;;;8.05;3.92;;;;;;;;;;5041328;28;20044;-73
2023/09/06 13:42:53;;;;;;;7.13;3.95;;;;;;;;;;5062910;28;20045;-72
2023/09/06 13:45:38;;;;;;;5.35;3.92;;;;;;;;;;5055717;28;20041;-72
2023/09/06 13:48:23;;;;;;;5.95;3.60;;;;;;;;;;5055900;28;20036;-72
2023/09/06 13:51:09;;;;;;;5.50;3.60;;;;;;;;;;5062887;28;20041;-73
2023/09/06 13:53:56;;;;;;;5.97;4.10;;;;;;;;;;5040249;28;20045;-73
2023/09/06 13:56:41;;;;;;;8.18;4.00;;;;;;;;;;5055546;28;20486;-72
2023/09/06 13:59:28;;;;;;;4.85;3.50;;;;;;;;;;5056172;28;20045;-73
2023/09/06 14:02:13;;;;;;;6.13;3.58;;;;;;;;;;5055734;28;20044;-75
2023/09/06 14:04:59;;;;;;;7.28;3.80;;;;;;;;;;5055871;28;20037;-74
2023/09/06 14:07:44;;;;;;;8.63;3.72;;;;;;;;;;5055460;28;20048;-75
2023/09/06 14:10:30;;;;;;;9.07;3.75;;;;;;;;;;5040470;28;20048;-74
2023/09/06 14:13:15;;;;;;;6.07;3.60;;;;;;;;;;5055479;28;20486;-74
2023/09/06 14:16:01;;;;;;;7.18;3.47;;;;;;;;;;5055405;28;20045;-74
2023/09/06 14:18:46;;;;;;;8.68;4.00;;;;;;;;;;5055671;28;20044;-74
2023/09/06 14:21:33;;;;;;;6.00;3.33;;;;;;;;;;5061549;28;20394;-74
2023/09/06 14:24:18;;;;;;;8.45;3.42;;;;;;;;;;5054508;28;20053;-73
2023/09/06 14:27:06;;;;;;;12.90;4.22;;;;;;;;;;5061856;28;20041;-73
2023/09/06 14:29:52;;;;;;;5.10;3.67;;;;;;;;;;5055134;28;20041;-74
2023/09/06 14:32:37;;;;;;;7.07;4.13;;;;;;;;;;5055106;28;20056;-73
2023/09/06 14:35:22;;;;;;;6.95;3.67;;;;;;;;;;5054448;28;20037;-73
2023/09/06 14:38:08;;;;;;;5.18;3.70;;;;;;;;;;5054962;28;20045;-74
2023/09/06 14:40:55;;;;;;;10.55;4.00;;;;;;;;;;5055203;28;20041;-71
2023/09/06 14:43:40;;;;;;;7.93;4.13;;;;;;;;;;5054748;28;20401;-73
2023/09/06 14:46:26;;;;;;;10.25;3.88;;;;;;;;;;5054453;28;20479;-73
2023/09/06 14:49:12;;;;;;;7.50;3.50;;;;;;;;;;5039903;28;20041;-72
2023/09/06 14:51:58;;;;;;;4.60;3.60;;;;;;;;;;5054868;28;20044;-73
2023/09/06 14:54:44;;;;;;;9.68;3.83;;;;;;;;;;5061327;28;20045;-72
2023/09/06 14:57:29;;;;;;;7.38;3.58;;;;;;;;;;5054240;28;20398;-73
2023/09/06 15:00:15;;;;;;;5.43;3.70;;;;;;;;;;5054338;28;20041;-74
2023/09/06 15:03:01;;;;;;;8.00;3.72;;;;;;;;;;5054041;28;20053;-74
2023/09/06 15:05:46;;;;;;;7.97;4.00;;;;;;;;;;5054207;28;20041;-73
2023/09/06 15:08:31;;;;;;;5.13;3.60;;;;;;;;;;5054218;28;20048;-72
2023/09/06 15:11:17;;;;;;;7.10;3.90;;;;;;;;;;5053701;28;20053;-72
2023/09/06 15:14:04;;;;;;;7.18;4.05;;;;;;;;;;5053647;28;20045;-73
2023/09/06 15:16:50;;;;;;;8.63;4.35;;;;;;;;;;5053888;28;20041;-72
2023/09/06 15:19:36;;;;;;;8.65;3.97;;;;;;;;;;5054670;28;20390;-73
2023/09/06 15:22:22;;;;;;;5.57;3.60;;;;;;;;;;5045662;28;20498;-74
2023/09/06 15:25:10;;;;;;;5.95;3.90;;;;;;;;;;5054018;28;20049;-71
2023/09/06 15:27:55;;;;;;;11.65;4.65;;;;;;;;;;5054178;28;20044;-73
2023/09/06 15:30:41;;;;;;;8.27;3.88;;;;;;;;;;5053911;28;20041;-73
2023/09/06 15:33:27;;;;;;;13.13;4.65;;;;;;;;;;5053354;28;20044;-74
2023/09/06 15:36:12;;;;;;;7.55;4.10;;;;;;;;;;5038571;28;20498;-73
2023/09/06 15:38:58;;;;;;;7.10;3.95;;;;;;;;;;5053624;28;20056;-73
2023/09/06 15:41:44;;;;;;;8.63;4.10;;;;;;;;;;5053332;28;20049;-72
2023/09/06 15:44:30;;;;;;;9.60;4.20;;;;;;;;;;5053380;28;20045;-73
2023/09/06 15:47:16;;;;;;;13.70;4.78;;;;;;;;;;5053148;28;20049;-73
2023/09/06 15:50:01;;;;;;;8.18;4.50;;;;;;;;;;5052341;28;20049;-73
2023/09/06 15:52:48;;;;;;;10.25;4.10;;;;;;;;;;5052824;28;20482;-74
2023/09/06 15:55:34;;;;;;;8.55;4.55;;;;;;;;;;5052979;28;20033;-74
2023/09/06 15:58:20;;;;;;;8.15;4.32;;;;;;;;;;5052961;28;20402;-74
2023/09/06 16:01:05;;;;;;;9.40;4.70;;;;;;;;;;5053167;28;20037;-75
2023/09/06 16:03:51;;;;;;;13.00;5.55;;;;;;;;;;5053272;28;20048;-75
2023/09/06 16:06:38;;;;;;;15.50;4.55;;;;;;;;;;5053409;28;20049;-76
2023/09/06 16:09:24;;;;;;;9.65;4.60;;;;;;;;;;5052479;28;20044;-74
2023/09/06 16:12:10;;;;;;;10.23;5.32;;;;;;;;;;5052360;28;20404;-74
2023/09/06 16:14:55;;;;;;;10.63;4.80;;;;;;;;;;5051860;28;20049;-74
2023/09/06 16:17:41;;;;;;;14.90;4.50;;;;;;;;;;5053194;28;20057;-74
2023/09/06 16:20:27;;;;;;;12.32;5.35;;;;;;;;;;5044580;28;20071;-74
2023/09/06 16:23:12;;;;;;;16.33;5.68;;;;;;;;;;5052138;28;20475;-74
2023/09/06 16:25:58;;;;;;;13.07;5.57;;;;;;;;;;5051502;28;20053;-74
2023/09/06 16:28:43;;;;;;;11.98;6.00;;;;;;;;;;5052912;28;20045;-75
2023/09/06 16:31:29;;;;;;;12.98;6.45;;;;;;;;;;5052960;28;20045;-74
2023/09/06 16:34:14;;;;;;;26.50;6.93;;;;;;;;;;5052913;28;20049;-74
2023/09/06 16:37:03;;;;;;;13.60;6.68;;;;;;;;;;5052118;28;20049;-74